PWSweather.com
Personal Weather Stations
Station Observations
KPAGREEN17
Chestnut Hill Farm, Greensburg, PA 15601

Chestnut Hill FarmGreensburg, PA 15601

Lat: 40.32, Lon: -79.55

Elevation: 1148

Station Type: OR 968

Latest ConditionsUpdated 12:45:03 PM EDT Wednesday, Sep 2, 2015
Currently Today's Max Today's Min Today's Average
Temperature 87.5°F30.8°C 88.3°F31.3°C 54.0°F12.2°C 64.6°F18.1°C
Dew Point 57.2°F14.0°C 70.2°F21.2°C 52.8°F11.6°C 58.0°F14.4°C
Winds 2.3 mph WSW3.7 kmh WSW 2.3 mph WSW3.7 kmh WSW - 0.4 mph 0.6 kmh
Wind Gusts 3.5 mph5.6 kmh 4.6 mph7.4 kmh - -
Humidity 36% 97% 36% 83%
Pressure 30.13 in1020.3 mb 30.19 in1022.4 mb 30.13 in1020.3 mb -
Hour Temp Dew Point Humidity Winds Wind Gusts Pressure Precip Precip Rate Daily Precip Total
12:45 PM 87.5°F30.8°C 57.2°F14.0°C 36% 2.3 mph WSW3.7 kmh WSW 3.5 mph5.6 kmh 30.13 in1020.3 mb - 0.00 in0.0 mm 0.00 in0.0 mm
12:30 PM 88.3°F31.3°C 60.2°F15.7°C 39% 1.2 mph NE1.9 kmh NE 3.5 mph5.6 kmh 30.13 in1020.3 mb - 0.00 in0.0 mm 0.00 in0.0 mm
12:15 PM 87.3°F30.7°C 60.7°F15.9°C 41% 1.2 mph W1.9 kmh W -- 30.13 in1020.3 mb - 0.00 in0.0 mm 0.00 in0.0 mm
12:00 PM 86.7°F30.4°C 60.9°F16.1°C 42% 1.2 mph ESE1.9 kmh ESE 4.6 mph7.4 kmh 30.16 in1021.3 mb - 0.00 in0.0 mm 0.00 in0.0 mm
11:45 AM 86.5°F30.3°C 61.3°F16.3°C 43% 2.3 mph SW3.7 kmh SW 3.5 mph5.6 kmh 30.16 in1021.3 mb - 0.00 in0.0 mm 0.00 in0.0 mm
11:30 AM 87.3°F30.7°C 62.0°F16.7°C 43% 2.3 mph 3.7 kmh 4.6 mph7.4 kmh 30.16 in1021.3 mb - 0.00 in0.0 mm 0.00 in0.0 mm
11:15 AM 85.5°F29.7°C 64.1°F17.8°C 49% 1.2 mph N1.9 kmh N 3.5 mph5.6 kmh 30.16 in1021.3 mb - 0.00 in0.0 mm 0.00 in0.0 mm
11:00 AM 84.4°F29.1°C 64.8°F18.2°C 52% 1.2 mph WSW1.9 kmh WSW 2.3 mph3.7 kmh 30.16 in1021.3 mb - 0.00 in0.0 mm 0.00 in0.0 mm
10:45 AM 81.8°F27.7°C 64.1°F17.8°C 55% 1.2 mph NE1.9 kmh NE 1.2 mph1.9 kmh 30.16 in1021.3 mb - 0.00 in0.0 mm 0.00 in0.0 mm
10:30 AM 81.8°F27.7°C 65.1°F18.4°C 57% 1.2 mph E1.9 kmh E 3.5 mph5.6 kmh 30.16 in1021.3 mb - 0.00 in0.0 mm 0.00 in0.0 mm
10:15 AM 80.4°F26.9°C 66.2°F19.0°C 62% Calm Calm 1.2 mph1.9 kmh 30.16 in1021.3 mb - 0.00 in0.0 mm 0.00 in0.0 mm
10:00 AM 78.9°F26.1°C 66.1°F18.9°C 65% Calm Calm 1.2 mph1.9 kmh 30.16 in1021.3 mb - 0.00 in0.0 mm 0.00 in0.0 mm
09:45 AM 77.7°F25.4°C 65.9°F18.8°C 67% 1.2 mph E1.9 kmh E 2.3 mph3.7 kmh 30.16 in1021.3 mb - 0.00 in0.0 mm 0.00 in0.0 mm
09:30 AM 76.5°F24.7°C 67.2°F19.6°C 73% 1.2 mph E1.9 kmh E 2.3 mph3.7 kmh 30.19 in1022.4 mb - 0.00 in0.0 mm 0.00 in0.0 mm
09:15 AM 75.4°F24.1°C 65.3°F18.5°C 71% 1.2 mph E1.9 kmh E 2.3 mph3.7 kmh 30.16 in1021.3 mb - 0.00 in0.0 mm 0.00 in0.0 mm
09:00 AM 75.4°F24.1°C 70.2°F21.2°C 84% Calm Calm 2.3 mph3.7 kmh 30.16 in1021.3 mb - 0.00 in0.0 mm 0.00 in0.0 mm
08:45 AM 73.4°F23.0°C 70.0°F21.1°C 89% Calm Calm 1.2 mph1.9 kmh 30.16 in1021.3 mb - 0.00 in0.0 mm 0.00 in0.0 mm
08:30 AM 71.2°F21.8°C 69.7°F20.9°C 95% Calm Calm -- 30.19 in1022.4 mb - 0.00 in0.0 mm 0.00 in0.0 mm
08:15 AM 70.0°F21.1°C 69.1°F20.6°C 97% Calm Calm -- 30.19 in1022.4 mb - 0.00 in0.0 mm 0.00 in0.0 mm
08:00 AM 68.9°F20.5°C 68.0°F20.0°C 97% Calm Calm -- 30.19 in1022.4 mb - 0.00 in0.0 mm 0.00 in0.0 mm
07:45 AM 68.0°F20.0°C 66.8°F19.3°C 96% Calm Calm -- 30.16 in1021.3 mb - 0.00 in0.0 mm 0.00 in0.0 mm
07:30 AM 67.5°F19.7°C 65.7°F18.7°C 94% Calm Calm -- 30.16 in1021.3 mb - 0.00 in0.0 mm 0.00 in0.0 mm
07:15 AM 54.0°F12.2°C 52.8°F11.6°C 96% Calm Calm -- 30.16 in1021.3 mb - 0.00 in0.0 mm 0.00 in0.0 mm
07:00 AM 54.0°F12.2°C 52.8°F11.6°C 96% Calm Calm -- 30.16 in1021.3 mb - 0.00 in0.0 mm 0.00 in0.0 mm
06:45 AM 54.0°F12.2°C 52.8°F11.6°C 96% Calm Calm -- 30.16 in1021.3 mb - 0.00 in0.0 mm 0.00 in0.0 mm
06:30 AM 54.0°F12.2°C 52.8°F11.6°C 96% Calm Calm -- 30.16 in1021.3 mb - 0.00 in0.0 mm 0.00 in0.0 mm
06:15 AM 54.0°F12.2°C 52.8°F11.6°C 96% Calm Calm -- 30.16 in1021.3 mb - 0.00 in0.0 mm 0.00 in0.0 mm
06:00 AM 54.0°F12.2°C 52.8°F11.6°C 96% Calm Calm -- 30.13 in1020.3 mb - 0.00 in0.0 mm 0.00 in0.0 mm
05:45 AM 54.0°F12.2°C 52.8°F11.6°C 96% Calm Calm -- 30.16 in1021.3 mb - 0.00 in0.0 mm 0.00 in0.0 mm
05:30 AM 54.0°F12.2°C 52.8°F11.6°C 96% Calm Calm -- 30.16 in1021.3 mb - 0.00 in0.0 mm 0.00 in0.0 mm
05:15 AM 54.0°F12.2°C 52.8°F11.6°C 96% Calm Calm -- 30.16 in1021.3 mb - 0.00 in0.0 mm 0.00 in0.0 mm
05:00 AM 54.0°F12.2°C 52.8°F11.6°C 96% Calm Calm -- 30.16 in1021.3 mb - 0.00 in0.0 mm 0.00 in0.0 mm
04:45 AM 54.0°F12.2°C 52.8°F11.6°C 96% Calm Calm -- 30.16 in1021.3 mb - 0.00 in0.0 mm 0.00 in0.0 mm
04:30 AM 54.0°F12.2°C 52.8°F11.6°C 96% Calm Calm -- 30.13 in1020.3 mb - 0.00 in0.0 mm 0.00 in0.0 mm
04:15 AM 54.0°F12.2°C 52.8°F11.6°C 96% Calm Calm -- 30.16 in1021.3 mb - 0.00 in0.0 mm 0.00 in0.0 mm
04:00 AM 54.0°F12.2°C 52.8°F11.6°C 96% Calm Calm -- 30.13 in1020.3 mb - 0.00 in0.0 mm 0.00 in0.0 mm
03:45 AM 54.0°F12.2°C 52.8°F11.6°C 96% Calm Calm -- 30.16 in1021.3 mb - 0.00 in0.0 mm 0.00 in0.0 mm
03:30 AM 54.0°F12.2°C 52.8°F11.6°C 96% Calm Calm -- 30.16 in1021.3 mb - 0.00 in0.0 mm 0.00 in0.0 mm
03:15 AM 54.0°F12.2°C 52.8°F11.6°C 96% Calm Calm -- 30.16 in1021.3 mb - 0.00 in0.0 mm 0.00 in0.0 mm
03:00 AM 54.0°F12.2°C 52.8°F11.6°C 96% Calm Calm -- 30.16 in1021.3 mb - 0.00 in0.0 mm 0.00 in0.0 mm
02:45 AM 54.0°F12.2°C 52.8°F11.6°C 96% Calm Calm -- 30.16 in1021.3 mb - 0.00 in0.0 mm 0.00 in0.0 mm
02:30 AM 54.0°F12.2°C 52.8°F11.6°C 96% Calm Calm -- 30.16 in1021.3 mb - 0.00 in0.0 mm 0.00 in0.0 mm
02:15 AM 54.0°F12.2°C 52.8°F11.6°C 96% Calm Calm -- 30.16 in1021.3 mb - 0.00 in0.0 mm 0.00 in0.0 mm
02:00 AM 54.0°F12.2°C 52.8°F11.6°C 96% Calm Calm -- 30.16 in1021.3 mb - 0.00 in0.0 mm 0.00 in0.0 mm
01:45 AM 54.0°F12.2°C 52.8°F11.6°C 96% Calm Calm -- 30.16 in1021.3 mb - 0.00 in0.0 mm 0.00 in0.0 mm
01:30 AM 54.0°F12.2°C 52.8°F11.6°C 96% Calm Calm -- 30.16 in1021.3 mb - 0.00 in0.0 mm 0.00 in0.0 mm
01:15 AM 54.0°F12.2°C 52.8°F11.6°C 96% Calm Calm -- 30.16 in1021.3 mb - 0.00 in0.0 mm 0.00 in0.0 mm
01:00 AM 54.0°F12.2°C 52.8°F11.6°C 96% Calm Calm -- 30.16 in1021.3 mb - 0.00 in0.0 mm 0.00 in0.0 mm
12:45 AM 54.0°F12.2°C 52.8°F11.6°C 96% Calm Calm -- 30.16 in1021.3 mb - 0.00 in0.0 mm 0.00 in0.0 mm
12:30 AM 54.0°F12.2°C 52.8°F11.6°C 96% Calm Calm -- 30.16 in1021.3 mb - 0.00 in0.0 mm 0.00 in0.0 mm
12:15 AM 54.0°F12.2°C 52.8°F11.6°C 96% Calm Calm -- 30.16 in1021.3 mb - 0.00 in0.0 mm 0.00 in0.0 mm
12:00 AM 54.0°F12.2°C 52.8°F11.6°C 96% Calm Calm -- 30.16 in1021.3 mb - 0.00 in0.0 mm 0.00 in0.0 mm